sensor_id;sensor_type;location;lat;lon;timestamp;temperature;humidity
54485;DHT22;45006;56.958;24.166;2023-06-04T00:01:14;23.90;73.20
54485;DHT22;45006;56.958;24.166;2023-06-04T00:03:43;23.90;73.30
54485;DHT22;45006;56.958;24.166;2023-06-04T00:06:10;23.90;73.40
54485;DHT22;45006;56.958;24.166;2023-06-04T00:08:37;23.90;73.40
54485;DHT22;45006;56.958;24.166;2023-06-04T00:11:04;23.90;73.40
54485;DHT22;45006;56.958;24.166;2023-06-04T00:13:32;23.90;73.50
54485;DHT22;45006;56.958;24.166;2023-06-04T00:15:59;23.90;73.50
54485;DHT22;45006;56.958;24.166;2023-06-04T00:18:26;23.90;73.60
54485;DHT22;45006;56.958;24.166;2023-06-04T00:20:53;23.90;73.70
54485;DHT22;45006;56.958;24.166;2023-06-04T00:23:20;23.90;73.70
54485;DHT22;45006;56.958;24.166;2023-06-04T00:25:47;23.90;73.80
54485;DHT22;45006;56.958;24.166;2023-06-04T00:28:14;23.90;73.80
54485;DHT22;45006;56.958;24.166;2023-06-04T00:30:41;23.90;73.90
54485;DHT22;45006;56.958;24.166;2023-06-04T00:33:08;23.90;73.90
54485;DHT22;45006;56.958;24.166;2023-06-04T00:35:35;23.90;74.00
54485;DHT22;45006;56.958;24.166;2023-06-04T00:38:02;23.90;74.10
54485;DHT22;45006;56.958;24.166;2023-06-04T00:40:29;23.90;74.10
54485;DHT22;45006;56.958;24.166;2023-06-04T00:42:56;23.90;74.20
54485;DHT22;45006;56.958;24.166;2023-06-04T00:45:24;23.90;74.30
54485;DHT22;45006;56.958;24.166;2023-06-04T00:47:52;23.90;74.30
54485;DHT22;45006;56.958;24.166;2023-06-04T00:50:20;23.90;74.30
54485;DHT22;45006;56.958;24.166;2023-06-04T00:52:49;23.90;74.40
54485;DHT22;45006;56.958;24.166;2023-06-04T00:55:17;23.90;74.40
54485;DHT22;45006;56.958;24.166;2023-06-04T00:57:45;23.90;74.50
54485;DHT22;45006;56.958;24.166;2023-06-04T01:00:12;23.90;74.50
54485;DHT22;45006;56.958;24.166;2023-06-04T01:02:41;24.00;74.70
54485;DHT22;45006;56.958;24.166;2023-06-04T01:05:29;23.90;74.60
54485;DHT22;45006;56.958;24.166;2023-06-04T01:08:01;23.90;74.70
54485;DHT22;45006;56.958;24.166;2023-06-04T01:10:28;24.00;74.80
54485;DHT22;45006;56.958;24.166;2023-06-04T01:12:55;23.90;74.70
54485;DHT22;45006;56.958;24.166;2023-06-04T01:15:22;23.90;74.80
54485;DHT22;45006;56.958;24.166;2023-06-04T01:17:52;23.90;74.80
54485;DHT22;45006;56.958;24.166;2023-06-04T01:20:38;23.90;74.80
54485;DHT22;45006;56.958;24.166;2023-06-04T01:25:41;23.90;74.90
54485;DHT22;45006;56.958;24.166;2023-06-04T01:28:12;23.90;74.90
54485;DHT22;45006;56.958;24.166;2023-06-04T01:30:41;23.90;74.90
54485;DHT22;45006;56.958;24.166;2023-06-04T01:33:16;23.90;74.90
54485;DHT22;45006;56.958;24.166;2023-06-04T01:35:43;23.90;74.90
54485;DHT22;45006;56.958;24.166;2023-06-04T01:38:11;23.90;74.80
54485;DHT22;45006;56.958;24.166;2023-06-04T01:40:38;23.90;74.90
54485;DHT22;45006;56.958;24.166;2023-06-04T01:43:05;23.90;74.90
54485;DHT22;45006;56.958;24.166;2023-06-04T01:45:55;23.90;74.90
54485;DHT22;45006;56.958;24.166;2023-06-04T01:48:23;23.90;74.90
54485;DHT22;45006;56.958;24.166;2023-06-04T01:50:50;23.90;74.90
54485;DHT22;45006;56.958;24.166;2023-06-04T01:53:18;23.90;74.90
54485;DHT22;45006;56.958;24.166;2023-06-04T01:55:45;23.90;74.90
54485;DHT22;45006;56.958;24.166;2023-06-04T01:58:12;23.90;74.90
54485;DHT22;45006;56.958;24.166;2023-06-04T02:00:47;23.90;74.90
54485;DHT22;45006;56.958;24.166;2023-06-04T02:03:18;23.90;74.90
54485;DHT22;45006;56.958;24.166;2023-06-04T02:05:49;23.90;74.90
54485;DHT22;45006;56.958;24.166;2023-06-04T02:08:16;23.90;74.90
54485;DHT22;45006;56.958;24.166;2023-06-04T02:10:49;23.90;74.90
54485;DHT22;45006;56.958;24.166;2023-06-04T02:13:16;23.90;74.90
54485;DHT22;45006;56.958;24.166;2023-06-04T02:15:43;23.90;74.90
54485;DHT22;45006;56.958;24.166;2023-06-04T02:18:15;23.90;74.90
54485;DHT22;45006;56.958;24.166;2023-06-04T02:20:45;23.90;74.90
54485;DHT22;45006;56.958;24.166;2023-06-04T02:23:14;23.90;74.90
54485;DHT22;45006;56.958;24.166;2023-06-04T02:25:42;23.90;74.90
54485;DHT22;45006;56.958;24.166;2023-06-04T02:28:12;23.90;74.90
54485;DHT22;45006;56.958;24.166;2023-06-04T02:30:39;23.90;74.90
54485;DHT22;45006;56.958;24.166;2023-06-04T02:33:06;23.90;74.80
54485;DHT22;45006;56.958;24.166;2023-06-04T02:35:36;23.90;74.80
54485;DHT22;45006;56.958;24.166;2023-06-04T02:38:04;23.90;74.80
54485;DHT22;45006;56.958;24.166;2023-06-04T02:40:31;23.90;74.80
54485;DHT22;45006;56.958;24.166;2023-06-04T02:42:58;23.90;74.80
54485;DHT22;45006;56.958;24.166;2023-06-04T02:45:25;23.90;74.80
54485;DHT22;45006;56.958;24.166;2023-06-04T02:47:53;23.90;74.80
54485;DHT22;45006;56.958;24.166;2023-06-04T02:50:20;23.90;74.80
54485;DHT22;45006;56.958;24.166;2023-06-04T02:52:51;23.90;74.80
54485;DHT22;45006;56.958;24.166;2023-06-04T02:55:18;23.90;74.70
54485;DHT22;45006;56.958;24.166;2023-06-04T02:57:45;23.90;74.70
54485;DHT22;45006;56.958;24.166;2023-06-04T03:00:13;23.90;74.70
54485;DHT22;45006;56.958;24.166;2023-06-04T03:02:45;23.90;74.70
54485;DHT22;45006;56.958;24.166;2023-06-04T03:05:16;23.90;74.70
54485;DHT22;45006;56.958;24.166;2023-06-04T03:07:45;23.90;74.70
54485;DHT22;45006;56.958;24.166;2023-06-04T03:10:14;23.90;74.60
54485;DHT22;45006;56.958;24.166;2023-06-04T03:12:42;23.90;74.60
54485;DHT22;45006;56.958;24.166;2023-06-04T03:15:09;23.90;74.60
54485;DHT22;45006;56.958;24.166;2023-06-04T03:17:37;23.90;74.60
54485;DHT22;45006;56.958;24.166;2023-06-04T03:20:04;23.90;74.60
54485;DHT22;45006;56.958;24.166;2023-06-04T03:22:34;23.90;74.60
54485;DHT22;45006;56.958;24.166;2023-06-04T03:25:03;23.90;74.60
54485;DHT22;45006;56.958;24.166;2023-06-04T03:27:33;23.90;74.60
54485;DHT22;45006;56.958;24.166;2023-06-04T03:30:00;23.90;74.60
54485;DHT22;45006;56.958;24.166;2023-06-04T03:32:28;23.90;74.60
54485;DHT22;45006;56.958;24.166;2023-06-04T03:34:55;23.90;74.60
54485;DHT22;45006;56.958;24.166;2023-06-04T03:37:22;23.90;74.50
54485;DHT22;45006;56.958;24.166;2023-06-04T03:39:49;23.90;74.50
54485;DHT22;45006;56.958;24.166;2023-06-04T03:42:16;23.90;74.50
54485;DHT22;45006;56.958;24.166;2023-06-04T03:44:43;23.90;74.50
54485;DHT22;45006;56.958;24.166;2023-06-04T03:47:10;23.90;74.50
54485;DHT22;45006;56.958;24.166;2023-06-04T03:49:37;23.90;74.50
54485;DHT22;45006;56.958;24.166;2023-06-04T03:52:05;23.90;74.50
54485;DHT22;45006;56.958;24.166;2023-06-04T03:54:32;23.90;74.50
54485;DHT22;45006;56.958;24.166;2023-06-04T03:57:00;23.90;74.50
54485;DHT22;45006;56.958;24.166;2023-06-04T03:59:27;23.90;74.50
54485;DHT22;45006;56.958;24.166;2023-06-04T04:01:54;23.90;74.50
54485;DHT22;45006;56.958;24.166;2023-06-04T04:04:21;23.90;74.50
54485;DHT22;45006;56.958;24.166;2023-06-04T04:06:48;23.90;74.50
54485;DHT22;45006;56.958;24.166;2023-06-04T04:09:15;23.90;74.50
54485;DHT22;45006;56.958;24.166;2023-06-04T04:11:42;23.90;74.50
54485;DHT22;45006;56.958;24.166;2023-06-04T04:14:09;23.90;74.40
54485;DHT22;45006;56.958;24.166;2023-06-04T04:16:36;23.90;74.50
54485;DHT22;45006;56.958;24.166;2023-06-04T04:19:03;23.90;74.40
54485;DHT22;45006;56.958;24.166;2023-06-04T04:21:30;23.90;74.50
54485;DHT22;45006;56.958;24.166;2023-06-04T04:23:57;23.90;74.50
54485;DHT22;45006;56.958;24.166;2023-06-04T04:26:24;23.90;74.40
54485;DHT22;45006;56.958;24.166;2023-06-04T04:28:54;23.90;74.40
54485;DHT22;45006;56.958;24.166;2023-06-04T04:31:27;23.90;74.40
54485;DHT22;45006;56.958;24.166;2023-06-04T04:33:57;23.90;74.50
54485;DHT22;45006;56.958;24.166;2023-06-04T04:36:25;23.90;75.00
54485;DHT22;45006;56.958;24.166;2023-06-04T04:38:52;23.90;74.40
54485;DHT22;45006;56.958;24.166;2023-06-04T04:41:22;23.90;74.40
54485;DHT22;45006;56.958;24.166;2023-06-04T04:43:53;23.90;74.40
54485;DHT22;45006;56.958;24.166;2023-06-04T04:46:21;23.90;74.40
54485;DHT22;45006;56.958;24.166;2023-06-04T04:48:48;23.90;74.40
54485;DHT22;45006;56.958;24.166;2023-06-04T04:51:16;23.90;74.40
54485;DHT22;45006;56.958;24.166;2023-06-04T04:53:43;23.90;74.40
54485;DHT22;45006;56.958;24.166;2023-06-04T04:56:12;23.90;74.40
54485;DHT22;45006;56.958;24.166;2023-06-04T04:58:39;23.90;74.30
54485;DHT22;45006;56.958;24.166;2023-06-04T05:01:06;23.90;74.40
54485;DHT22;45006;56.958;24.166;2023-06-04T05:03:34;23.90;74.40
54485;DHT22;45006;56.958;24.166;2023-06-04T05:06:01;23.90;74.40
54485;DHT22;45006;56.958;24.166;2023-06-04T05:08:28;23.90;74.40
54485;DHT22;45006;56.958;24.166;2023-06-04T05:10:57;23.90;74.40
54485;DHT22;45006;56.958;24.166;2023-06-04T05:13:24;23.80;74.30
54485;DHT22;45006;56.958;24.166;2023-06-04T05:15:52;23.90;74.40
54485;DHT22;45006;56.958;24.166;2023-06-04T05:18:21;23.80;74.40
54485;DHT22;45006;56.958;24.166;2023-06-04T05:20:48;23.80;74.40
54485;DHT22;45006;56.958;24.166;2023-06-04T05:23:15;23.90;74.40
54485;DHT22;45006;56.958;24.166;2023-06-04T05:25:43;23.90;74.50
54485;DHT22;45006;56.958;24.166;2023-06-04T05:28:10;23.80;74.50
54485;DHT22;45006;56.958;24.166;2023-06-04T05:30:40;23.90;74.50
54485;DHT22;45006;56.958;24.166;2023-06-04T05:33:08;23.90;74.50
54485;DHT22;45006;56.958;24.166;2023-06-04T05:35:46;23.90;74.60
54485;DHT22;45006;56.958;24.166;2023-06-04T05:38:15;23.80;74.50
54485;DHT22;45006;56.958;24.166;2023-06-04T05:40:45;23.90;74.60
54485;DHT22;45006;56.958;24.166;2023-06-04T05:43:13;23.80;74.60
54485;DHT22;45006;56.958;24.166;2023-06-04T05:45:40;23.90;74.60
54485;DHT22;45006;56.958;24.166;2023-06-04T05:48:07;23.90;74.70
54485;DHT22;45006;56.958;24.166;2023-06-04T05:50:35;23.80;75.30
54485;DHT22;45006;56.958;24.166;2023-06-04T05:53:02;23.90;74.70
54485;DHT22;45006;56.958;24.166;2023-06-04T05:55:30;23.80;74.70
54485;DHT22;45006;56.958;24.166;2023-06-04T05:57:57;23.90;74.80
54485;DHT22;45006;56.958;24.166;2023-06-04T06:00:24;23.90;74.80
54485;DHT22;45006;56.958;24.166;2023-06-04T06:02:53;23.90;74.80
54485;DHT22;45006;56.958;24.166;2023-06-04T06:05:20;23.90;74.80
54485;DHT22;45006;56.958;24.166;2023-06-04T06:07:49;23.90;74.80
54485;DHT22;45006;56.958;24.166;2023-06-04T06:10:18;23.90;74.80
54485;DHT22;45006;56.958;24.166;2023-06-04T06:12:45;23.90;74.80
54485;DHT22;45006;56.958;24.166;2023-06-04T06:15:12;23.90;74.90
54485;DHT22;45006;56.958;24.166;2023-06-04T06:17:39;23.90;74.90
54485;DHT22;45006;56.958;24.166;2023-06-04T06:26:24;23.90;75.00
54485;DHT22;45006;56.958;24.166;2023-06-04T06:28:54;23.90;75.00
54485;DHT22;45006;56.958;24.166;2023-06-04T06:31:21;23.90;75.10
54485;DHT22;45006;56.958;24.166;2023-06-04T06:33:51;23.90;75.10
54485;DHT22;45006;56.958;24.166;2023-06-04T06:36:18;23.90;75.10
54485;DHT22;45006;56.958;24.166;2023-06-04T06:38:46;23.90;75.10
54485;DHT22;45006;56.958;24.166;2023-06-04T06:41:13;23.90;75.10
54485;DHT22;45006;56.958;24.166;2023-06-04T06:43:40;23.90;75.20
54485;DHT22;45006;56.958;24.166;2023-06-04T06:46:07;23.90;75.20
54485;DHT22;45006;56.958;24.166;2023-06-04T06:48:35;23.90;75.20
54485;DHT22;45006;56.958;24.166;2023-06-04T06:51:03;23.90;75.20
54485;DHT22;45006;56.958;24.166;2023-06-04T06:53:30;23.90;75.30
54485;DHT22;45006;56.958;24.166;2023-06-04T06:55:57;23.90;75.30
54485;DHT22;45006;56.958;24.166;2023-06-04T06:58:25;23.90;75.30
54485;DHT22;45006;56.958;24.166;2023-06-04T07:00:52;23.90;75.30
54485;DHT22;45006;56.958;24.166;2023-06-04T07:03:21;23.90;75.30
54485;DHT22;45006;56.958;24.166;2023-06-04T07:05:49;23.90;75.40
54485;DHT22;45006;56.958;24.166;2023-06-04T07:08:16;23.90;75.40
54485;DHT22;45006;56.958;24.166;2023-06-04T07:10:44;23.90;75.40
54485;DHT22;45006;56.958;24.166;2023-06-04T07:13:12;23.90;75.50
54485;DHT22;45006;56.958;24.166;2023-06-04T07:15:39;23.90;75.50
54485;DHT22;45006;56.958;24.166;2023-06-04T07:18:06;24.00;75.60
54485;DHT22;45006;56.958;24.166;2023-06-04T07:20:33;23.90;75.50
54485;DHT22;45006;56.958;24.166;2023-06-04T07:23:00;23.90;75.60
54485;DHT22;45006;56.958;24.166;2023-06-04T07:25:28;23.90;75.60
54485;DHT22;45006;56.958;24.166;2023-06-04T07:27:55;23.90;75.70
54485;DHT22;45006;56.958;24.166;2023-06-04T07:30:25;23.90;75.70
54485;DHT22;45006;56.958;24.166;2023-06-04T07:32:52;24.00;75.70
54485;DHT22;45006;56.958;24.166;2023-06-04T07:35:19;23.90;75.70
54485;DHT22;45006;56.958;24.166;2023-06-04T07:37:46;23.90;75.70
54485;DHT22;45006;56.958;24.166;2023-06-04T07:40:16;24.00;75.90
54485;DHT22;45006;56.958;24.166;2023-06-04T07:42:46;24.00;75.90
54485;DHT22;45006;56.958;24.166;2023-06-04T07:45:19;23.90;75.80
54485;DHT22;45006;56.958;24.166;2023-06-04T07:48:01;23.90;75.90
54485;DHT22;45006;56.958;24.166;2023-06-04T07:50:29;24.00;75.90
54485;DHT22;45006;56.958;24.166;2023-06-04T07:53:01;24.00;75.90
54485;DHT22;45006;56.958;24.166;2023-06-04T07:55:28;24.00;75.90
54485;DHT22;45006;56.958;24.166;2023-06-04T07:57:57;24.00;76.00
54485;DHT22;45006;56.958;24.166;2023-06-04T08:00:24;24.00;76.00
54485;DHT22;45006;56.958;24.166;2023-06-04T08:02:51;24.00;76.00
54485;DHT22;45006;56.958;24.166;2023-06-04T08:05:19;24.00;76.00
54485;DHT22;45006;56.958;24.166;2023-06-04T08:07:46;24.00;76.00
54485;DHT22;45006;56.958;24.166;2023-06-04T08:10:14;24.00;76.10
54485;DHT22;45006;56.958;24.166;2023-06-04T08:12:41;24.00;76.10
54485;DHT22;45006;56.958;24.166;2023-06-04T08:15:10;24.00;76.10
54485;DHT22;45006;56.958;24.166;2023-06-04T08:17:37;24.00;76.20
54485;DHT22;45006;56.958;24.166;2023-06-04T08:20:05;24.00;76.20
54485;DHT22;45006;56.958;24.166;2023-06-04T08:22:38;24.00;76.20
54485;DHT22;45006;56.958;24.166;2023-06-04T08:25:06;23.90;76.00
54485;DHT22;45006;56.958;24.166;2023-06-04T08:27:34;24.00;75.80
54485;DHT22;45006;56.958;24.166;2023-06-04T08:30:01;24.00;75.60
54485;DHT22;45006;56.958;24.166;2023-06-04T08:32:28;23.90;75.30
54485;DHT22;45006;56.958;24.166;2023-06-04T08:34:55;24.00;75.90
54485;DHT22;45006;56.958;24.166;2023-06-04T08:37:22;23.90;75.10
54485;DHT22;45006;56.958;24.166;2023-06-04T08:39:51;23.90;74.90
54485;DHT22;45006;56.958;24.166;2023-06-04T08:42:29;24.00;74.80
54485;DHT22;45006;56.958;24.166;2023-06-04T08:44:58;23.90;74.60
54485;DHT22;45006;56.958;24.166;2023-06-04T08:47:25;23.90;74.50
54485;DHT22;45006;56.958;24.166;2023-06-04T08:50:00;23.90;74.40
54485;DHT22;45006;56.958;24.166;2023-06-04T08:52:28;24.00;74.40
54485;DHT22;45006;56.958;24.166;2023-06-04T08:54:56;23.90;74.20
54485;DHT22;45006;56.958;24.166;2023-06-04T08:57:23;23.90;74.10
54485;DHT22;45006;56.958;24.166;2023-06-04T08:59:50;23.90;74.00
54485;DHT22;45006;56.958;24.166;2023-06-04T09:02:18;23.90;73.90
54485;DHT22;45006;56.958;24.166;2023-06-04T09:04:45;23.90;73.80
54485;DHT22;45006;56.958;24.166;2023-06-04T09:07:16;23.90;73.70
54485;DHT22;45006;56.958;24.166;2023-06-04T09:09:46;23.90;73.60
54485;DHT22;45006;56.958;24.166;2023-06-04T09:12:27;23.90;73.50
54485;DHT22;45006;56.958;24.166;2023-06-04T09:14:57;23.90;73.30
54485;DHT22;45006;56.958;24.166;2023-06-04T09:17:24;23.90;73.20
54485;DHT22;45006;56.958;24.166;2023-06-04T09:19:52;23.90;73.10
54485;DHT22;45006;56.958;24.166;2023-06-04T09:22:19;23.90;73.00
54485;DHT22;45006;56.958;24.166;2023-06-04T09:24:47;23.90;73.00
54485;DHT22;45006;56.958;24.166;2023-06-04T09:27:17;23.90;72.90
54485;DHT22;45006;56.958;24.166;2023-06-04T09:29:56;23.90;72.80
54485;DHT22;45006;56.958;24.166;2023-06-04T09:32:29;23.90;72.70
54485;DHT22;45006;56.958;24.166;2023-06-04T09:37:43;23.90;72.50
54485;DHT22;45006;56.958;24.166;2023-06-04T09:40:18;23.90;72.40
54485;DHT22;45006;56.958;24.166;2023-06-04T09:42:47;23.90;72.40
54485;DHT22;45006;56.958;24.166;2023-06-04T09:45:30;23.90;72.30
54485;DHT22;45006;56.958;24.166;2023-06-04T09:47:59;23.90;72.20
54485;DHT22;45006;56.958;24.166;2023-06-04T09:50:35;23.90;72.10
54485;DHT22;45006;56.958;24.166;2023-06-04T09:53:32;23.90;72.00
54485;DHT22;45006;56.958;24.166;2023-06-04T09:56:00;23.90;72.00
54485;DHT22;45006;56.958;24.166;2023-06-04T09:58:29;23.90;71.90
54485;DHT22;45006;56.958;24.166;2023-06-04T10:00:58;23.90;71.90
54485;DHT22;45006;56.958;24.166;2023-06-04T10:03:26;23.90;71.90
54485;DHT22;45006;56.958;24.166;2023-06-04T10:05:57;23.90;71.80
54485;DHT22;45006;56.958;24.166;2023-06-04T10:08:27;23.90;71.70
54485;DHT22;45006;56.958;24.166;2023-06-04T10:10:58;23.90;71.70
54485;DHT22;45006;56.958;24.166;2023-06-04T10:13:31;23.90;71.70
54485;DHT22;45006;56.958;24.166;2023-06-04T10:16:02;23.90;71.60
54485;DHT22;45006;56.958;24.166;2023-06-04T10:18:31;23.90;71.60
54485;DHT22;45006;56.958;24.166;2023-06-04T10:20:59;23.90;71.60
54485;DHT22;45006;56.958;24.166;2023-06-04T10:23:26;23.80;71.50
54485;DHT22;45006;56.958;24.166;2023-06-04T10:25:54;23.90;71.50
54485;DHT22;45006;56.958;24.166;2023-06-04T10:28:22;23.90;71.50
54485;DHT22;45006;56.958;24.166;2023-06-04T10:30:50;23.90;71.50
54485;DHT22;45006;56.958;24.166;2023-06-04T10:33:21;23.90;71.40
54485;DHT22;45006;56.958;24.166;2023-06-04T10:35:54;23.90;71.40
54485;DHT22;45006;56.958;24.166;2023-06-04T10:38:25;23.90;71.30
54485;DHT22;45006;56.958;24.166;2023-06-04T10:40:52;23.80;71.30
54485;DHT22;45006;56.958;24.166;2023-06-04T10:43:20;23.90;71.30
54485;DHT22;45006;56.958;24.166;2023-06-04T10:46:11;23.80;71.20
54485;DHT22;45006;56.958;24.166;2023-06-04T10:52:10;23.90;71.30
54485;DHT22;45006;56.958;24.166;2023-06-04T10:54:37;23.90;71.30
54485;DHT22;45006;56.958;24.166;2023-06-04T10:57:15;23.90;71.20
54485;DHT22;45006;56.958;24.166;2023-06-04T11:00:03;23.90;71.20
54485;DHT22;45006;56.958;24.166;2023-06-04T11:02:33;23.80;71.10
54485;DHT22;45006;56.958;24.166;2023-06-04T11:05:07;23.80;71.10
54485;DHT22;45006;56.958;24.166;2023-06-04T11:07:47;23.90;71.20
54485;DHT22;45006;56.958;24.166;2023-06-04T11:10:15;23.80;71.10
54485;DHT22;45006;56.958;24.166;2023-06-04T11:12:49;23.90;71.10
54485;DHT22;45006;56.958;24.166;2023-06-04T11:15:20;23.90;71.10
54485;DHT22;45006;56.958;24.166;2023-06-04T11:17:56;23.90;71.10
54485;DHT22;45006;56.958;24.166;2023-06-04T11:20:28;23.90;71.10
54485;DHT22;45006;56.958;24.166;2023-06-04T11:22:56;23.80;71.00
54485;DHT22;45006;56.958;24.166;2023-06-04T11:25:27;23.90;71.10
54485;DHT22;45006;56.958;24.166;2023-06-04T11:28:00;23.80;71.10
54485;DHT22;45006;56.958;24.166;2023-06-04T11:30:31;23.90;71.10
54485;DHT22;45006;56.958;24.166;2023-06-04T11:33:04;23.90;71.10
54485;DHT22;45006;56.958;24.166;2023-06-04T11:35:41;23.80;71.00
54485;DHT22;45006;56.958;24.166;2023-06-04T11:38:09;23.90;71.10
54485;DHT22;45006;56.958;24.166;2023-06-04T11:40:36;23.90;71.10
54485;DHT22;45006;56.958;24.166;2023-06-04T11:43:03;23.90;71.10
54485;DHT22;45006;56.958;24.166;2023-06-04T11:45:31;23.90;71.10
54485;DHT22;45006;56.958;24.166;2023-06-04T11:47:58;23.80;71.10
54485;DHT22;45006;56.958;24.166;2023-06-04T11:50:27;23.80;71.10
54485;DHT22;45006;56.958;24.166;2023-06-04T11:52:57;23.80;71.10
54485;DHT22;45006;56.958;24.166;2023-06-04T11:55:25;23.90;71.20
54485;DHT22;45006;56.958;24.166;2023-06-04T11:57:57;23.90;71.20
54485;DHT22;45006;56.958;24.166;2023-06-04T12:00:28;23.90;71.30
54485;DHT22;45006;56.958;24.166;2023-06-04T12:02:57;23.80;71.30
54485;DHT22;45006;56.958;24.166;2023-06-04T12:05:31;23.80;71.90
54485;DHT22;45006;56.958;24.166;2023-06-04T12:08:06;23.90;71.40
54485;DHT22;45006;56.958;24.166;2023-06-04T12:10:42;23.90;71.40
54485;DHT22;45006;56.958;24.166;2023-06-04T12:13:12;23.80;71.40
54485;DHT22;45006;56.958;24.166;2023-06-04T12:15:39;23.80;71.40
54485;DHT22;45006;56.958;24.166;2023-06-04T12:18:06;23.90;71.50
54485;DHT22;45006;56.958;24.166;2023-06-04T12:20:38;23.90;71.60
54485;DHT22;45006;56.958;24.166;2023-06-04T12:23:06;23.90;71.60
54485;DHT22;45006;56.958;24.166;2023-06-04T12:25:34;23.90;71.70
54485;DHT22;45006;56.958;24.166;2023-06-04T12:28:07;23.90;71.70
54485;DHT22;45006;56.958;24.166;2023-06-04T12:30:44;23.90;71.80
54485;DHT22;45006;56.958;24.166;2023-06-04T12:33:12;23.90;71.80
54485;DHT22;45006;56.958;24.166;2023-06-04T12:35:40;23.80;71.80
54485;DHT22;45006;56.958;24.166;2023-06-04T12:38:07;23.80;71.90
54485;DHT22;45006;56.958;24.166;2023-06-04T12:40:36;23.90;71.90
54485;DHT22;45006;56.958;24.166;2023-06-04T12:43:05;23.90;72.00
54485;DHT22;45006;56.958;24.166;2023-06-04T12:45:32;23.80;72.00
54485;DHT22;45006;56.958;24.166;2023-06-04T12:48:00;23.90;72.20
54485;DHT22;45006;56.958;24.166;2023-06-04T12:50:29;23.90;72.20
54485;DHT22;45006;56.958;24.166;2023-06-04T12:52:56;23.80;72.20
54485;DHT22;45006;56.958;24.166;2023-06-04T12:55:22;23.80;72.20
54485;DHT22;45006;56.958;24.166;2023-06-04T12:57:53;23.90;72.40
54485;DHT22;45006;56.958;24.166;2023-06-04T13:00:20;23.90;72.40
54485;DHT22;45006;56.958;24.166;2023-06-04T13:02:49;23.90;72.40
54485;DHT22;45006;56.958;24.166;2023-06-04T13:05:16;23.80;72.40
54485;DHT22;45006;56.958;24.166;2023-06-04T13:07:43;23.90;72.50
54485;DHT22;45006;56.958;24.166;2023-06-04T13:10:10;23.90;72.50
54485;DHT22;45006;56.958;24.166;2023-06-04T13:12:37;23.90;72.50
54485;DHT22;45006;56.958;24.166;2023-06-04T13:15:05;23.80;72.50
54485;DHT22;45006;56.958;24.166;2023-06-04T13:17:33;23.90;72.60
54485;DHT22;45006;56.958;24.166;2023-06-04T13:20:00;23.90;72.60
54485;DHT22;45006;56.958;24.166;2023-06-04T13:22:27;23.90;72.60
54485;DHT22;45006;56.958;24.166;2023-06-04T13:24:54;23.90;72.60
54485;DHT22;45006;56.958;24.166;2023-06-04T13:27:22;23.90;72.60
54485;DHT22;45006;56.958;24.166;2023-06-04T13:29:50;23.90;72.60
54485;DHT22;45006;56.958;24.166;2023-06-04T13:32:17;23.90;72.60
54485;DHT22;45006;56.958;24.166;2023-06-04T13:34:44;23.90;72.60
54485;DHT22;45006;56.958;24.166;2023-06-04T13:37:12;23.80;72.50
54485;DHT22;45006;56.958;24.166;2023-06-04T13:39:40;23.90;72.60
54485;DHT22;45006;56.958;24.166;2023-06-04T13:42:07;23.80;72.50
54485;DHT22;45006;56.958;24.166;2023-06-04T13:44:34;23.90;72.50
54485;DHT22;45006;56.958;24.166;2023-06-04T13:47:01;23.90;72.50
54485;DHT22;45006;56.958;24.166;2023-06-04T13:49:33;23.90;72.50
54485;DHT22;45006;56.958;24.166;2023-06-04T13:52:00;23.90;72.50
54485;DHT22;45006;56.958;24.166;2023-06-04T13:54:28;23.90;72.40
54485;DHT22;45006;56.958;24.166;2023-06-04T13:56:55;23.90;72.40
54485;DHT22;45006;56.958;24.166;2023-06-04T13:59:22;23.90;72.40
54485;DHT22;45006;56.958;24.166;2023-06-04T14:01:49;23.80;72.40
54485;DHT22;45006;56.958;24.166;2023-06-04T14:04:16;23.90;72.40
54485;DHT22;45006;56.958;24.166;2023-06-04T14:06:44;23.80;72.30
54485;DHT22;45006;56.958;24.166;2023-06-04T14:09:11;23.90;72.40
54485;DHT22;45006;56.958;24.166;2023-06-04T14:11:39;23.80;72.30
54485;DHT22;45006;56.958;24.166;2023-06-04T14:14:07;23.90;72.40
54485;DHT22;45006;56.958;24.166;2023-06-04T14:16:35;23.80;72.30
54485;DHT22;45006;56.958;24.166;2023-06-04T14:19:02;23.80;72.30
54485;DHT22;45006;56.958;24.166;2023-06-04T14:21:29;23.90;72.30
54485;DHT22;45006;56.958;24.166;2023-06-04T14:23:56;23.90;72.30
54485;DHT22;45006;56.958;24.166;2023-06-04T14:26:23;23.80;72.20
54485;DHT22;45006;56.958;24.166;2023-06-04T14:28:51;23.80;72.20
54485;DHT22;45006;56.958;24.166;2023-06-04T14:31:18;23.90;72.20
54485;DHT22;45006;56.958;24.166;2023-06-04T14:33:47;23.80;72.20
54485;DHT22;45006;56.958;24.166;2023-06-04T14:36:14;23.90;72.20
54485;DHT22;45006;56.958;24.166;2023-06-04T14:38:42;23.80;72.10
54485;DHT22;45006;56.958;24.166;2023-06-04T14:41:11;23.90;72.10
54485;DHT22;45006;56.958;24.166;2023-06-04T14:43:38;23.80;72.00
54485;DHT22;45006;56.958;24.166;2023-06-04T14:46:05;23.90;72.10
54485;DHT22;45006;56.958;24.166;2023-06-04T14:48:32;23.80;72.00
54485;DHT22;45006;56.958;24.166;2023-06-04T14:50:59;23.90;72.00
54485;DHT22;45006;56.958;24.166;2023-06-04T14:53:27;23.90;72.00
54485;DHT22;45006;56.958;24.166;2023-06-04T14:55:54;23.90;72.00
54485;DHT22;45006;56.958;24.166;2023-06-04T14:58:21;23.90;72.00
54485;DHT22;45006;56.958;24.166;2023-06-04T15:00:50;23.80;71.90
54485;DHT22;45006;56.958;24.166;2023-06-04T15:03:17;23.80;72.50
54485;DHT22;45006;56.958;24.166;2023-06-04T15:05:44;23.90;71.90
54485;DHT22;45006;56.958;24.166;2023-06-04T15:08:11;23.80;71.90
54485;DHT22;45006;56.958;24.166;2023-06-04T15:10:39;23.90;72.00
54485;DHT22;45006;56.958;24.166;2023-06-04T15:13:05;23.90;71.90
54485;DHT22;45006;56.958;24.166;2023-06-04T15:15:33;23.80;71.90
54485;DHT22;45006;56.958;24.166;2023-06-04T15:18:00;23.90;72.00
54485;DHT22;45006;56.958;24.166;2023-06-04T15:20:27;23.90;72.00
54485;DHT22;45006;56.958;24.166;2023-06-04T15:23:11;23.80;72.00
54485;DHT22;45006;56.958;24.166;2023-06-04T15:25:40;23.90;72.10
54485;DHT22;45006;56.958;24.166;2023-06-04T15:28:07;23.80;72.00
54485;DHT22;45006;56.958;24.166;2023-06-04T15:30:35;23.80;72.10
54485;DHT22;45006;56.958;24.166;2023-06-04T15:33:02;23.80;72.10
54485;DHT22;45006;56.958;24.166;2023-06-04T15:35:29;23.90;72.20
54485;DHT22;45006;56.958;24.166;2023-06-04T15:37:56;23.80;72.20
54485;DHT22;45006;56.958;24.166;2023-06-04T15:40:23;23.90;72.30